createdAt,value
2022-10-12T00:02:19.450Z,101052.75
2022-10-12T00:07:21.827Z,101043.59
2022-10-12T00:12:23.970Z,101064.56
2022-10-12T00:17:26.233Z,101054.34
2022-10-12T00:22:28.581Z,101032.75
2022-10-12T00:27:30.947Z,101031.63
2022-10-12T00:32:33.106Z,101011.84
2022-10-12T00:37:35.852Z,101025.97
2022-10-12T00:42:38.301Z,101023.63
2022-10-12T00:47:45.332Z,101036.81
2022-10-12T00:52:56.215Z,101037.88
2022-10-12T00:58:00.071Z,101034.94
2022-10-12T01:03:02.634Z,101024.19
2022-10-12T01:08:04.873Z,101037.41
2022-10-12T01:13:07.553Z,101032.97
2022-10-12T01:18:38.648Z,101041.56
2022-10-12T01:24:06.765Z,101036.81
2022-10-12T01:29:22.478Z,101040.63
2022-10-12T01:34:35.585Z,101046.50
2022-10-12T01:39:54.415Z,101034.09
2022-10-12T01:45:08.544Z,101032.50
2022-10-12T01:50:14.705Z,101003.81
2022-10-12T01:55:30.782Z,101044.78
2022-10-12T02:00:42.532Z,101042.06
2022-10-12T02:06:11.750Z,101016.31
2022-10-12T02:11:16.986Z,101036.66
2022-10-12T02:16:28.791Z,101050.66
2022-10-12T02:21:33.456Z,101059.47
2022-10-12T02:26:39.939Z,101049.47
2022-10-12T02:31:56.506Z,101048.03
2022-10-12T02:37:13.871Z,101040.97
2022-10-12T02:42:22.239Z,101061.41
2022-10-12T02:47:27.681Z,101047.44
2022-10-12T02:52:32.570Z,101061.97
2022-10-12T02:57:34.994Z,101029.97
2022-10-12T03:02:37.544Z,101055.91
2022-10-12T03:07:40.271Z,101053.63
2022-10-12T03:12:46.487Z,101061.88
2022-10-12T03:17:51.607Z,101068.63
2022-10-12T03:22:53.810Z,101057.47
2022-10-12T03:27:55.985Z,101065.25
2022-10-12T03:32:58.440Z,101072.44
2022-10-12T03:38:00.598Z,101038.28
2022-10-12T03:43:03.243Z,101054.72
2022-10-12T03:48:07.286Z,101062.81
2022-10-12T03:53:10.381Z,101045.56
2022-10-12T03:58:13.498Z,101053.28
2022-10-12T04:03:15.782Z,101054.50
2022-10-12T04:08:18.279Z,101071.34
2022-10-12T04:13:21.011Z,101048.84
2022-10-12T04:18:23.538Z,101021.03
2022-10-12T04:23:25.895Z,101043.66
2022-10-12T04:28:28.317Z,101040.34
2022-10-12T04:33:30.565Z,101061.38
2022-10-12T04:38:32.743Z,101047.84
2022-10-12T04:43:34.963Z,101064.69
2022-10-12T04:48:37.230Z,101057.84
2022-10-12T04:53:40.023Z,101085.94
2022-10-12T04:58:42.266Z,101075.22
2022-10-12T05:03:44.884Z,101087.03
2022-10-12T05:08:47.028Z,101079.97
2022-10-12T05:13:49.258Z,101080.16
2022-10-12T05:18:51.486Z,101089.94
2022-10-12T05:23:53.679Z,101087.44
2022-10-12T05:28:55.982Z,101114.69
2022-10-12T05:33:58.168Z,101125.53
2022-10-12T05:39:00.316Z,101115.78
2022-10-12T05:44:02.497Z,101113.09
2022-10-12T05:49:04.657Z,101134.56
2022-10-12T05:54:07.193Z,101125.63
2022-10-12T05:59:09.397Z,101105.66
2022-10-12T06:04:13.297Z,101132.75
2022-10-12T06:09:15.828Z,101135.47
2022-10-12T06:14:17.971Z,101135.84
2022-10-12T06:19:20.125Z,101121.91
2022-10-12T06:24:22.454Z,101146.09
2022-10-12T06:29:25.364Z,101165.50
2022-10-12T06:34:27.686Z,101151.72
2022-10-12T06:39:29.869Z,101187.28
2022-10-12T06:44:33.192Z,101174.56
2022-10-12T06:49:35.394Z,101158.53
2022-10-12T06:54:37.809Z,101183.09
2022-10-12T06:59:40.514Z,101171.19
2022-10-12T07:04:43.186Z,101190.94
2022-10-12T07:09:45.843Z,101201.31
2022-10-12T07:14:48.382Z,101171.69
2022-10-12T07:19:50.533Z,101173.78
2022-10-12T07:24:52.951Z,101186.78
2022-10-12T07:29:55.276Z,101186.75
2022-10-12T07:34:57.684Z,101183.09
2022-10-12T07:40:00.304Z,101170.28
2022-10-12T07:45:03.075Z,101173.13
2022-10-12T07:50:05.550Z,101187.91
2022-10-12T07:55:08.533Z,101183.44
2022-10-12T08:00:11.430Z,101175.00
2022-10-12T08:05:13.834Z,101192.88
2022-10-12T08:10:17.030Z,101161.97
2022-10-12T08:15:19.393Z,101172.53
2022-10-12T08:20:21.587Z,101173.47
2022-10-12T08:25:23.805Z,101177.81
2022-10-12T08:30:27.442Z,101176.72
2022-10-12T08:35:36.355Z,101187.72
2022-10-12T08:40:54.159Z,101185.09
2022-10-12T08:46:03.434Z,101186.22
2022-10-12T08:51:08.405Z,101188.63
2022-10-12T08:56:17.757Z,101160.09
2022-10-12T09:01:37.650Z,101184.53
2022-10-12T09:06:58.719Z,101184.94
2022-10-12T09:12:19.490Z,101179.59
2022-10-12T09:17:21.825Z,101182.22
2022-10-12T09:22:24.833Z,101143.56
2022-10-12T09:27:32.085Z,101187.47
2022-10-12T09:32:57.487Z,101180.72
2022-10-12T09:38:01.278Z,101162.47
2022-10-12T09:43:04.318Z,101178.03
2022-10-12T09:48:12.672Z,101174.03
2022-10-12T09:53:32.323Z,101134.34
2022-10-12T09:58:58.662Z,101154.47
2022-10-12T10:04:14.755Z,101149.25
2022-10-12T10:09:32.260Z,101156.13
2022-10-12T10:14:35.921Z,101162.63
2022-10-12T10:19:38.400Z,101146.63
2022-10-12T10:24:40.667Z,101140.94
2022-10-12T10:29:44.360Z,101147.31
2022-10-12T10:34:46.712Z,101146.13
2022-10-12T10:39:51.899Z,101136.78
2022-10-12T10:45:09.283Z,101122.53
2022-10-12T10:50:37.395Z,101142.25
2022-10-12T10:55:42.561Z,101135.81
2022-10-12T11:00:48.478Z,101148.41
2022-10-12T11:06:21.404Z,101129.66
2022-10-12T11:11:27.254Z,101123.13
2022-10-12T11:16:46.433Z,101122.31
2022-10-12T11:21:53.731Z,101116.41
2022-10-12T11:27:48.047Z,101111.47
2022-10-12T11:33:02.084Z,101119.97
2022-10-12T11:38:11.563Z,101072.25
2022-10-12T11:43:23.006Z,101104.94
2022-10-12T11:48:39.327Z,101102.13
2022-10-12T11:53:56.897Z,101110.06
2022-10-12T11:59:04.280Z,101112.66
2022-10-12T12:04:40.393Z,101122.72
2022-10-12T12:09:49.346Z,101123.97
2022-10-12T12:14:55.864Z,101130.19
2022-10-12T12:20:01.114Z,101102.78
2022-10-12T12:25:11.163Z,101136.25
2022-10-12T12:30:19.695Z,101142.47
2022-10-12T12:35:39.163Z,101138.00
2022-10-12T12:40:42.873Z,101137.88
2022-10-12T12:45:57.125Z,101118.16
2022-10-12T12:51:03.153Z,101119.38
2022-10-12T12:56:32.729Z,101127.53
2022-10-12T13:01:52.239Z,101125.13
2022-10-12T13:07:13.119Z,101126.19
2022-10-12T13:12:59.963Z,101120.88
2022-10-12T13:18:45.289Z,101138.94
2022-10-12T13:23:47.483Z,101139.53
2022-10-12T13:28:51.435Z,101126.38
2022-10-12T13:34:21.594Z,101122.38
2022-10-12T13:39:23.944Z,101140.50
2022-10-12T13:44:29.828Z,101139.81
2022-10-12T13:49:44.726Z,101107.59
2022-10-12T13:54:49.233Z,101131.59
2022-10-12T14:00:01.659Z,101126.38
2022-10-12T14:05:06.999Z,101137.03
2022-10-12T14:10:19.586Z,101133.19
2022-10-12T14:15:24.596Z,101126.53
2022-10-12T14:20:39.684Z,101134.25
2022-10-12T14:25:55.114Z,101136.25
2022-10-12T14:30:57.852Z,101128.19
2022-10-12T14:36:38.567Z,101141.56
2022-10-12T14:41:51.187Z,101152.81
2022-10-12T14:46:57.744Z,101135.53
2022-10-12T14:52:00.749Z,101114.88
2022-10-12T14:57:14.174Z,101142.16
2022-10-12T15:02:29.558Z,101143.91
2022-10-12T15:07:33.593Z,101141.19
2022-10-12T15:12:36.572Z,101121.47
2022-10-12T15:17:39.036Z,101109.25
2022-10-12T15:22:41.450Z,101135.50
2022-10-12T15:27:43.640Z,101133.50
2022-10-12T15:32:45.931Z,101120.50
2022-10-12T15:37:49.343Z,101149.06
2022-10-12T15:42:51.909Z,101146.78
2022-10-12T15:47:57.853Z,101145.56
2022-10-12T15:53:00.094Z,101126.91
2022-10-12T15:58:02.699Z,101150.94
2022-10-12T16:03:05.115Z,101136.00
2022-10-12T16:08:07.538Z,101126.56
2022-10-12T16:13:13.575Z,101152.59
2022-10-12T16:18:16.239Z,101134.38
2022-10-12T16:23:24.995Z,101165.41
2022-10-12T16:28:27.210Z,101161.53
2022-10-12T16:33:29.971Z,101150.94
2022-10-12T16:38:32.175Z,101169.91
2022-10-12T16:43:34.377Z,101165.78
2022-10-12T16:48:37.316Z,101168.50
2022-10-12T16:53:40.353Z,101163.50
2022-10-12T16:58:42.654Z,101146.91
2022-10-12T17:03:45.181Z,101137.16
2022-10-12T17:08:47.516Z,101168.13
2022-10-12T17:13:49.788Z,101158.81
2022-10-12T17:18:56.844Z,101175.88
2022-10-12T17:24:01.608Z,101179.56
2022-10-12T17:29:08.770Z,101186.41
2022-10-12T17:34:29.771Z,101180.19
2022-10-12T17:39:34.516Z,101190.69
2022-10-12T17:44:36.923Z,101170.28
2022-10-12T17:49:39.347Z,101174.06
2022-10-12T17:54:41.774Z,101197.97
2022-10-12T17:59:44.165Z,101201.75
2022-10-12T18:04:46.448Z,101205.97
2022-10-12T18:09:48.725Z,101211.84
2022-10-12T18:14:51.056Z,101209.41
2022-10-12T18:19:53.650Z,101214.78
2022-10-12T18:24:56.159Z,101221.88
2022-10-12T18:29:58.685Z,101222.50
2022-10-12T18:35:01.124Z,101220.69
2022-10-12T18:40:03.432Z,101211.75
2022-10-12T18:45:06.086Z,101219.66
2022-10-12T18:50:09.222Z,101238.41
2022-10-12T18:55:11.535Z,101221.94
2022-10-12T19:00:14.094Z,101233.81
2022-10-12T19:05:16.348Z,101229.03
2022-10-12T19:10:18.813Z,101238.19
2022-10-12T19:15:21.600Z,101227.59
2022-10-12T19:20:24.012Z,101246.13
2022-10-12T19:25:26.343Z,101249.66
2022-10-12T19:30:29.544Z,101253.84
2022-10-12T19:35:32.310Z,101235.75
2022-10-12T19:40:35.483Z,101240.09
2022-10-12T19:45:41.649Z,101252.63
2022-10-12T19:50:44.355Z,101215.16
2022-10-12T19:55:46.670Z,101251.22
2022-10-12T20:00:49.264Z,101253.13
2022-10-12T20:05:51.655Z,101255.38
2022-10-12T20:10:54.230Z,101249.16
2022-10-12T20:15:57.350Z,101268.13
2022-10-12T20:21:00.902Z,101265.63
2022-10-12T20:26:07.919Z,101276.28
2022-10-12T20:31:10.890Z,101251.91
2022-10-12T20:36:20.155Z,101270.84
2022-10-12T20:41:23.669Z,101257.72
2022-10-12T20:46:27.305Z,101261.06
2022-10-12T20:51:32.298Z,101268.97
2022-10-12T20:56:34.671Z,101266.47
2022-10-12T21:01:37.392Z,101258.38
2022-10-12T21:06:40.410Z,101257.34
2022-10-12T21:11:44.222Z,101252.53
2022-10-12T21:16:46.623Z,101249.41
2022-10-12T21:21:49.148Z,101251.28
2022-10-12T21:26:52.379Z,101259.59
2022-10-12T21:31:55.189Z,101245.47
2022-10-12T21:36:58.146Z,101240.03
2022-10-12T21:42:00.500Z,101265.47
2022-10-12T21:47:02.782Z,101266.31
2022-10-12T21:52:05.191Z,101256.94
2022-10-12T21:57:07.648Z,101240.50
2022-10-12T22:02:09.804Z,101260.50
2022-10-12T22:07:12.027Z,101253.28
2022-10-12T22:12:14.319Z,101245.78
2022-10-12T22:17:16.646Z,101267.88
2022-10-12T22:22:19.339Z,101266.03
2022-10-12T22:27:21.775Z,101269.16
2022-10-12T22:32:24.119Z,101269.78
2022-10-12T22:37:26.549Z,101280.22
2022-10-12T22:42:28.794Z,101264.19
2022-10-12T22:47:31.207Z,101275.41
2022-10-12T22:52:34.454Z,101257.69
2022-10-12T22:57:36.739Z,101245.41
2022-10-12T23:02:38.943Z,101249.56
2022-10-12T23:07:41.341Z,101249.56
2022-10-12T23:12:43.864Z,101254.97
2022-10-12T23:17:46.208Z,101244.78
2022-10-12T23:22:48.604Z,101248.50
2022-10-12T23:27:50.836Z,101261.03
2022-10-12T23:32:53.180Z,101254.56
2022-10-12T23:37:55.522Z,101248.94
2022-10-12T23:42:58.013Z,101236.41
2022-10-12T23:48:00.425Z,101225.19
2022-10-12T23:53:02.662Z,101252.69
2022-10-12T23:58:05.896Z,101242.84
